createdAt,value
2023-01-01T00:00:49.954Z,3.70
2023-01-01T00:03:18.371Z,4.73
2023-01-01T00:05:46.829Z,2.73
2023-01-01T00:08:15.095Z,3.07
2023-01-01T00:10:44.584Z,4.13
2023-01-01T00:13:15.453Z,3.83
2023-01-01T00:15:43.752Z,3.60
2023-01-01T00:18:11.921Z,4.43
2023-01-01T00:20:40.077Z,4.13
2023-01-01T00:23:08.238Z,3.93
2023-01-01T00:25:36.312Z,3.53
2023-01-01T00:28:06.246Z,3.63
2023-01-01T00:30:34.811Z,3.60
2023-01-01T00:33:03.111Z,3.13
2023-01-01T00:35:31.271Z,3.73
2023-01-01T00:37:59.558Z,3.93
2023-01-01T00:40:28.109Z,4.40
2023-01-01T00:42:56.488Z,5.03
2023-01-01T00:45:26.135Z,5.17
2023-01-01T00:47:55.409Z,5.37
2023-01-01T00:50:24.956Z,4.70
2023-01-01T00:53:07.777Z,5.30
2023-01-01T00:55:36.093Z,5.30
2023-01-01T00:58:04.371Z,4.90
2023-01-01T01:00:34.290Z,4.20
2023-01-01T01:03:03.102Z,4.17
2023-01-01T01:05:32.191Z,4.73
2023-01-01T01:08:01.005Z,4.20
2023-01-01T01:10:29.134Z,4.90
2023-01-01T01:12:57.528Z,4.60
2023-01-01T01:15:26.296Z,4.03
2023-01-01T01:17:56.524Z,3.57
2023-01-01T01:20:24.965Z,4.30
2023-01-01T01:22:53.385Z,4.00
2023-01-01T01:25:21.894Z,2.90
2023-01-01T01:27:50.485Z,3.13
2023-01-01T01:30:18.816Z,3.43
2023-01-01T01:32:47.337Z,3.23
2023-01-01T01:35:16.968Z,3.43
2023-01-01T01:37:45.011Z,3.70
2023-01-01T01:40:17.719Z,4.07
2023-01-01T01:42:52.404Z,3.50
2023-01-01T01:45:20.885Z,3.70
2023-01-01T01:47:53.237Z,3.70
2023-01-01T01:50:27.472Z,3.30
2023-01-01T01:53:06.176Z,3.53
2023-01-01T01:55:37.188Z,3.47
2023-01-01T01:58:07.026Z,2.73
2023-01-01T02:00:35.558Z,3.37
2023-01-01T02:03:11.081Z,2.90
2023-01-01T02:05:42.812Z,2.80
2023-01-01T02:08:14.822Z,3.20
2023-01-01T02:10:43.494Z,3.17
2023-01-01T02:13:11.915Z,3.00
2023-01-01T02:15:45.774Z,2.37
2023-01-01T02:18:18.277Z,2.47
2023-01-01T02:20:55.221Z,2.90
2023-01-01T02:23:43.264Z,2.97
2023-01-01T02:26:39.012Z,2.97
2023-01-01T02:29:28.494Z,3.67
2023-01-01T02:32:02.475Z,2.03
2023-01-01T02:34:35.124Z,2.70
2023-01-01T02:37:07.836Z,2.33
2023-01-01T02:39:40.991Z,2.80
2023-01-01T02:42:10.122Z,3.00
2023-01-01T02:44:44.872Z,3.00
2023-01-01T02:47:15.458Z,2.90
2023-01-01T02:49:52.143Z,2.73
2023-01-01T02:52:42.368Z,2.57
2023-01-01T02:55:24.979Z,2.67
2023-01-01T03:04:24.249Z,2.43
2023-01-01T03:07:03.007Z,2.50
2023-01-01T03:09:41.918Z,2.90
2023-01-01T03:12:23.084Z,3.00
2023-01-01T03:15:00.060Z,2.90
2023-01-01T03:17:34.641Z,3.33
2023-01-01T03:20:08.033Z,2.57
2023-01-01T03:25:10.910Z,2.30
2023-01-01T03:27:43.720Z,2.07
2023-01-01T03:30:14.553Z,2.40
2023-01-01T03:33:07.798Z,2.50
2023-01-01T03:35:40.712Z,2.30
2023-01-01T03:38:15.166Z,3.27
2023-01-01T03:40:46.744Z,2.57
2023-01-01T03:43:22.707Z,2.83
2023-01-01T03:45:54.469Z,2.50
2023-01-01T03:48:24.074Z,3.23
2023-01-01T03:51:01.552Z,2.57
2023-01-01T03:53:40.875Z,2.53
2023-01-01T03:56:17.976Z,2.47
2023-01-01T03:58:54.062Z,2.60
2023-01-01T04:01:27.698Z,2.93
2023-01-01T04:03:58.858Z,2.10
2023-01-01T04:06:27.469Z,2.33
2023-01-01T04:09:00.443Z,2.37
2023-01-01T04:11:49.322Z,2.37
2023-01-01T04:14:28.701Z,2.40
2023-01-01T04:16:57.405Z,3.07
2023-01-01T04:19:27.754Z,3.00
2023-01-01T04:21:56.471Z,2.60
2023-01-01T04:24:25.637Z,2.10
2023-01-01T04:26:55.194Z,2.40
2023-01-01T04:29:24.208Z,3.70
2023-01-01T04:31:52.878Z,3.63
2023-01-01T04:34:21.209Z,3.37
2023-01-01T04:36:50.779Z,3.13
2023-01-01T04:39:18.815Z,3.90
2023-01-01T04:41:48.470Z,2.87
2023-01-01T04:44:16.637Z,2.93
2023-01-01T04:46:45.200Z,3.23
2023-01-01T04:49:13.644Z,3.43
2023-01-01T04:51:43.423Z,3.33
2023-01-01T04:54:13.707Z,3.50
2023-01-01T04:56:42.098Z,3.80
2023-01-01T04:59:12.777Z,3.40
2023-01-01T05:01:41.011Z,3.70
2023-01-01T05:04:14.573Z,3.93
2023-01-01T05:06:43.096Z,3.73
2023-01-01T05:09:13.495Z,3.43
2023-01-01T05:11:41.906Z,3.40
2023-01-01T05:14:10.135Z,3.23
2023-01-01T05:16:40.477Z,3.60
2023-01-01T05:19:09.973Z,3.10
2023-01-01T05:21:41.877Z,3.90
2023-01-01T05:24:12.665Z,4.07
2023-01-01T05:26:43.267Z,3.50
2023-01-01T05:29:16.560Z,3.50
2023-01-01T05:31:46.183Z,2.50
2023-01-01T05:34:14.505Z,3.23
2023-01-01T05:36:42.740Z,3.10
2023-01-01T05:39:14.554Z,2.77
2023-01-01T05:41:42.956Z,2.87
2023-01-01T05:44:12.057Z,2.80
2023-01-01T05:46:41.468Z,3.03
2023-01-01T05:49:12.167Z,2.90
2023-01-01T05:56:42.765Z,2.67
2023-01-01T05:59:12.016Z,2.73
2023-01-01T06:01:45.439Z,2.87
2023-01-01T06:04:19.111Z,3.10
2023-01-01T06:06:47.729Z,2.43
2023-01-01T06:09:16.095Z,2.70
2023-01-01T06:11:45.693Z,1.97
2023-01-01T06:14:13.758Z,2.60
2023-01-01T06:16:42.954Z,3.13
2023-01-01T06:19:11.451Z,2.40
2023-01-01T06:21:39.719Z,2.37
2023-01-01T06:24:08.521Z,2.30
2023-01-01T06:26:36.998Z,2.83
2023-01-01T06:29:06.703Z,2.67
2023-01-01T06:31:40.466Z,3.10
2023-01-01T06:34:09.183Z,2.50
2023-01-01T06:36:37.658Z,2.07
2023-01-01T06:39:06.127Z,2.27
2023-01-01T06:41:34.408Z,2.77
2023-01-01T06:44:03.241Z,2.50
2023-01-01T06:46:35.399Z,2.73
2023-01-01T06:49:10.013Z,2.67
2023-01-01T06:51:40.322Z,2.77
2023-01-01T06:54:09.384Z,2.83
2023-01-01T06:56:39.177Z,3.13
2023-01-01T06:59:07.931Z,2.03
2023-01-01T07:01:44.349Z,3.73
2023-01-01T07:04:14.722Z,3.03
2023-01-01T07:06:42.998Z,3.20
2023-01-01T07:09:11.149Z,3.10
2023-01-01T07:11:39.303Z,3.23
2023-01-01T07:14:07.300Z,2.90
2023-01-01T07:16:35.507Z,2.97
2023-01-01T07:19:05.032Z,2.50
2023-01-01T07:21:35.008Z,3.03
2023-01-01T07:24:05.215Z,2.47
2023-01-01T07:26:34.794Z,2.13
2023-01-01T07:29:08.080Z,2.80
2023-01-01T07:31:39.486Z,2.27
2023-01-01T07:34:13.814Z,2.73
2023-01-01T07:36:42.124Z,2.67
2023-01-01T07:39:10.322Z,2.80
2023-01-01T07:41:38.424Z,3.00
2023-01-01T07:44:07.026Z,3.47
2023-01-01T07:46:37.129Z,2.70
2023-01-01T07:49:06.092Z,2.40
2023-01-01T07:51:35.756Z,2.93
2023-01-01T07:54:07.054Z,3.10
2023-01-01T07:56:37.130Z,2.90
2023-01-01T07:59:05.549Z,3.20
2023-01-01T08:01:37.653Z,2.77
2023-01-01T08:04:06.207Z,3.30
2023-01-01T08:06:35.835Z,3.07
2023-01-01T08:09:04.115Z,3.10
2023-01-01T08:11:32.483Z,3.47
2023-01-01T08:14:01.363Z,2.60
2023-01-01T08:16:29.765Z,3.40
2023-01-01T08:18:58.153Z,2.93
2023-01-01T08:21:26.313Z,3.50
2023-01-01T08:23:56.022Z,3.10
2023-01-01T08:26:30.488Z,4.27
2023-01-01T08:28:59.549Z,3.67
2023-01-01T08:31:27.946Z,4.13
2023-01-01T08:33:56.255Z,3.53
2023-01-01T08:36:24.476Z,3.80
2023-01-01T08:38:52.613Z,3.40
2023-01-01T08:41:33.520Z,3.50
2023-01-01T08:44:02.508Z,3.33
2023-01-01T08:46:30.925Z,4.03
2023-01-01T09:00:09.649Z,4.03
2023-01-01T09:02:38.077Z,3.63
2023-01-01T09:05:07.096Z,3.70
2023-01-01T09:07:35.360Z,4.47
2023-01-01T09:10:03.668Z,3.80
2023-01-01T09:12:32.496Z,4.83
2023-01-01T09:15:00.640Z,3.67
2023-01-01T09:17:30.188Z,3.73
2023-01-01T09:19:58.243Z,4.20
2023-01-01T09:22:26.457Z,3.97
2023-01-01T09:24:54.589Z,4.10
2023-01-01T09:27:22.743Z,4.40
2023-01-01T09:29:50.940Z,5.17
2023-01-01T09:32:19.939Z,4.47
2023-01-01T09:34:52.694Z,5.70
2023-01-01T09:37:21.007Z,5.33
2023-01-01T09:39:49.277Z,4.97
2023-01-01T09:42:37.246Z,4.43
2023-01-01T09:45:22.484Z,5.80
2023-01-01T09:47:54.320Z,4.67
2023-01-01T09:50:26.596Z,5.17
2023-01-01T09:52:58.387Z,4.93
2023-01-01T09:55:30.984Z,4.83
2023-01-01T09:58:00.325Z,4.60
2023-01-01T10:00:32.450Z,5.17
2023-01-01T10:03:21.012Z,5.57
2023-01-01T10:05:58.473Z,4.73
2023-01-01T10:08:39.123Z,4.37
2023-01-01T10:11:15.169Z,5.03
2023-01-01T10:13:45.476Z,5.23
2023-01-01T10:16:25.010Z,4.73
2023-01-01T10:18:57.105Z,4.83
2023-01-01T10:21:32.384Z,4.70
2023-01-01T10:24:04.637Z,5.37
2023-01-01T10:26:36.162Z,4.67
2023-01-01T10:29:08.183Z,5.17
2023-01-01T10:31:38.690Z,6.20
2023-01-01T10:34:19.718Z,7.00
2023-01-01T10:37:09.092Z,6.43
2023-01-01T10:39:50.919Z,5.83
2023-01-01T10:42:19.837Z,4.40
2023-01-01T10:44:48.636Z,4.43
2023-01-01T10:47:43.621Z,4.67
2023-01-01T10:50:12.766Z,5.03
2023-01-01T10:53:03.545Z,4.13
2023-01-01T10:59:59.747Z,3.83
2023-01-01T11:05:22.802Z,4.87
2023-01-01T11:08:35.000Z,4.43
2023-01-01T11:11:16.699Z,4.63
2023-01-01T11:13:45.165Z,4.87
2023-01-01T11:16:14.249Z,4.47
2023-01-01T11:18:47.363Z,5.60
2023-01-01T11:21:39.208Z,4.43
2023-01-01T11:24:37.012Z,4.83
2023-01-01T11:27:27.331Z,4.57
2023-01-01T11:33:25.727Z,4.77
2023-01-01T11:39:32.449Z,4.37
2023-01-01T11:42:05.877Z,4.20
2023-01-01T11:44:48.336Z,4.70
2023-01-01T11:47:30.977Z,5.20
2023-01-01T11:56:36.330Z,4.70
2023-01-01T11:59:19.017Z,4.30
2023-01-01T12:01:50.385Z,4.47
2023-01-01T12:04:26.339Z,5.20
2023-01-01T12:07:02.611Z,5.47
2023-01-01T12:09:38.837Z,4.17
2023-01-01T12:12:12.782Z,4.17
2023-01-01T12:14:49.040Z,5.53
2023-01-01T12:17:24.716Z,5.17
2023-01-01T12:20:01.676Z,4.03
2023-01-01T12:22:30.475Z,5.50
2023-01-01T12:24:59.489Z,4.83
2023-01-01T12:27:56.899Z,4.97
2023-01-01T12:30:32.415Z,5.23
2023-01-01T12:33:29.099Z,4.30
2023-01-01T12:36:10.796Z,5.60
2023-01-01T12:39:19.928Z,4.43
2023-01-01T12:41:59.212Z,4.70
2023-01-01T12:44:39.957Z,4.13
2023-01-01T12:47:18.031Z,5.00
2023-01-01T12:49:58.599Z,4.67
2023-01-01T12:52:40.396Z,5.17
2023-01-01T12:55:52.082Z,6.43
2023-01-01T12:58:27.201Z,4.70
2023-01-01T13:00:59.974Z,4.10
2023-01-01T13:03:33.668Z,5.27
2023-01-01T13:06:03.520Z,5.77
2023-01-01T13:08:34.822Z,4.63
2023-01-01T13:11:05.663Z,4.13
2023-01-01T13:13:34.256Z,4.57
2023-01-01T13:16:02.607Z,3.97
2023-01-01T13:18:35.476Z,4.13
2023-01-01T13:21:07.885Z,4.30
2023-01-01T13:23:47.745Z,4.40
2023-01-01T13:26:35.987Z,4.40
2023-01-01T13:29:35.418Z,3.77
2023-01-01T13:32:12.698Z,4.67
2023-01-01T13:35:05.984Z,3.77
2023-01-01T13:37:51.872Z,4.40
2023-01-01T13:40:53.447Z,4.73
2023-01-01T13:43:32.297Z,4.23
2023-01-01T13:46:12.827Z,5.27
2023-01-01T13:49:03.735Z,3.73
2023-01-01T13:52:06.573Z,4.40
2023-01-01T13:55:14.484Z,5.33
2023-01-01T13:58:14.308Z,4.30
2023-01-01T14:00:57.172Z,4.77
2023-01-01T14:03:28.937Z,4.17
2023-01-01T14:06:00.240Z,4.23
2023-01-01T14:08:41.768Z,4.37
2023-01-01T14:11:21.344Z,4.77
2023-01-01T14:13:49.869Z,4.37
2023-01-01T14:16:18.679Z,4.27
2023-01-01T14:18:50.029Z,4.40
2023-01-01T14:21:21.444Z,4.00
2023-01-01T14:23:54.310Z,5.37
2023-01-01T14:26:24.685Z,4.70
2023-01-01T14:28:55.596Z,4.67
2023-01-01T14:31:28.212Z,4.50
2023-01-01T14:33:56.539Z,4.70
2023-01-01T14:36:42.506Z,4.47
2023-01-01T14:39:27.948Z,4.53
2023-01-01T14:44:59.584Z,4.47
2023-01-01T14:47:32.347Z,6.40
2023-01-01T14:50:22.316Z,4.80
2023-01-01T14:55:21.763Z,5.70
2023-01-01T14:58:06.294Z,4.97
2023-01-01T15:00:35.831Z,5.23
2023-01-01T15:09:19.515Z,5.17
2023-01-01T15:11:51.426Z,4.27
2023-01-01T15:26:47.473Z,2.67
2023-01-01T15:29:41.113Z,5.10
2023-01-01T15:32:30.958Z,3.90
2023-01-01T15:35:01.576Z,3.23
2023-01-01T15:37:36.387Z,3.17
2023-01-01T15:40:36.930Z,4.03
2023-01-01T15:43:25.702Z,4.37
2023-01-01T15:46:08.242Z,3.07
2023-01-01T15:48:39.087Z,3.73
2023-01-01T15:51:16.220Z,3.80
2023-01-01T15:53:55.227Z,4.17
2023-01-01T15:56:29.896Z,3.80
2023-01-01T15:59:08.803Z,4.00
2023-01-01T16:01:42.716Z,2.53
2023-01-01T16:04:22.026Z,3.70
2023-01-01T16:06:58.400Z,3.67
2023-01-01T16:09:27.708Z,2.93
2023-01-01T16:12:00.762Z,2.07
2023-01-01T16:14:37.564Z,1.93
2023-01-01T16:17:08.363Z,3.13
2023-01-01T16:19:37.103Z,2.90
2023-01-01T16:22:05.292Z,2.60
2023-01-01T16:24:36.217Z,1.90
2023-01-01T16:27:06.017Z,2.70
2023-01-01T16:29:34.219Z,2.90
2023-01-01T16:32:02.447Z,2.00
2023-01-01T16:34:32.109Z,4.50
2023-01-01T16:37:00.570Z,3.00
2023-01-01T16:39:35.583Z,2.80
2023-01-01T16:42:34.885Z,5.40
2023-01-01T16:45:19.890Z,2.60
2023-01-01T16:47:53.652Z,2.70
2023-01-01T16:50:25.161Z,3.13
2023-01-01T16:52:54.197Z,3.43
2023-01-01T16:55:24.067Z,3.60
2023-01-01T16:58:21.158Z,3.90
2023-01-01T17:00:46.795Z,3.93
2023-01-01T17:20:05.572Z,2.97
2023-01-01T17:41:21.118Z,4.50
2023-01-01T17:53:13.907Z,3.47
2023-01-01T18:13:06.014Z,2.60
2023-01-01T18:19:14.898Z,2.20
2023-01-01T18:24:44.810Z,4.30
2023-01-01T18:45:43.462Z,4.60
2023-01-01T18:48:20.481Z,3.97
2023-01-01T18:50:49.425Z,5.40
2023-01-01T18:53:23.833Z,2.80
2023-01-01T18:56:01.167Z,4.30
2023-01-01T18:58:44.870Z,4.10
2023-01-01T19:15:02.940Z,9.37
2023-01-01T19:17:59.424Z,9.63
2023-01-01T19:20:29.227Z,10.20
2023-01-01T19:23:13.941Z,9.83
2023-01-01T19:27:02.059Z,7.40
2023-01-01T19:33:33.548Z,2.93
2023-01-01T19:36:14.700Z,4.03
2023-01-01T19:38:45.844Z,3.60
2023-01-01T19:41:35.843Z,3.97
2023-01-01T19:44:09.985Z,3.37
2023-01-01T19:46:40.131Z,2.37
2023-01-01T19:49:24.196Z,1.90
2023-01-01T19:51:56.388Z,2.47
2023-01-01T19:54:26.910Z,2.90
2023-01-01T19:56:57.225Z,2.07
2023-01-01T19:59:32.621Z,2.90
2023-01-01T20:02:43.487Z,2.10
2023-01-01T20:04:53.474Z,1.93
2023-01-01T20:08:02.466Z,2.73
2023-01-01T20:10:39.174Z,2.53
2023-01-01T20:13:08.547Z,2.53
2023-01-01T20:15:39.200Z,2.17
2023-01-01T20:18:13.442Z,1.90
2023-01-01T20:21:02.293Z,2.27
2023-01-01T20:23:30.996Z,1.90
2023-01-01T20:26:02.000Z,2.10
2023-01-01T20:28:49.650Z,2.20
2023-01-01T20:49:53.486Z,2.43
2023-01-01T20:52:25.375Z,3.17
2023-01-01T20:54:59.018Z,1.93
2023-01-01T20:57:27.701Z,1.80
2023-01-01T20:59:56.076Z,2.13
2023-01-01T21:02:30.695Z,2.97
2023-01-01T21:04:58.974Z,2.83
2023-01-01T21:07:27.250Z,2.50
2023-01-01T21:09:55.405Z,2.40
2023-01-01T21:12:23.459Z,2.00
2023-01-01T21:14:51.944Z,2.00
2023-01-01T21:17:23.068Z,2.23
2023-01-01T21:19:55.762Z,3.90
2023-01-01T21:22:24.408Z,2.83
2023-01-01T21:24:55.429Z,3.40
2023-01-01T21:27:35.217Z,2.63
2023-01-01T21:30:03.596Z,2.40
2023-01-01T21:35:30.555Z,2.87
2023-01-01T21:38:16.410Z,3.40
2023-01-01T21:40:56.773Z,2.33
2023-01-01T21:43:36.531Z,2.93
2023-01-01T21:47:06.458Z,2.90
2023-01-01T21:49:43.614Z,3.20
2023-01-01T21:52:20.541Z,3.27
2023-01-01T21:54:50.181Z,2.40
2023-01-01T21:57:25.602Z,2.67
2023-01-01T21:59:57.229Z,2.63
2023-01-01T22:02:48.850Z,2.90
2023-01-01T22:05:32.626Z,2.93
2023-01-01T22:08:23.622Z,2.87
2023-01-01T22:10:59.690Z,2.23
2023-01-01T22:19:23.193Z,2.40
2023-01-01T22:21:53.229Z,2.80
2023-01-01T22:24:34.965Z,2.67
2023-01-01T22:27:25.055Z,4.03
2023-01-01T22:29:54.823Z,2.57
2023-01-01T22:32:25.942Z,2.83
2023-01-01T22:34:56.503Z,3.03
2023-01-01T22:37:32.914Z,3.07
2023-01-01T22:40:02.795Z,4.00
2023-01-01T22:42:37.675Z,3.37
2023-01-01T22:45:12.319Z,2.53
2023-01-01T22:47:40.789Z,3.93
2023-01-01T22:50:14.052Z,3.57
2023-01-01T22:52:42.240Z,3.93
2023-01-01T22:55:12.089Z,3.87
2023-01-01T22:57:40.290Z,3.20
2023-01-01T23:00:09.526Z,3.90
2023-01-01T23:02:39.320Z,4.37
2023-01-01T23:05:08.174Z,3.47
2023-01-01T23:07:41.707Z,2.17
2023-01-01T23:10:13.522Z,2.63
2023-01-01T23:12:42.142Z,2.77
2023-01-01T23:15:28.426Z,4.50
2023-01-01T23:17:56.919Z,3.10
2023-01-01T23:20:26.227Z,2.63
2023-01-01T23:22:57.218Z,1.33
2023-01-01T23:25:28.754Z,1.10
2023-01-01T23:27:57.375Z,2.07
2023-01-01T23:30:25.569Z,2.33
2023-01-01T23:32:53.771Z,1.80
2023-01-01T23:35:22.082Z,2.00
2023-01-01T23:37:50.287Z,1.90
2023-01-01T23:40:18.407Z,1.83
2023-01-01T23:42:48.095Z,2.57
2023-01-01T23:45:16.201Z,1.43
2023-01-01T23:47:45.127Z,1.20
2023-01-01T23:50:13.689Z,1.63
2023-01-01T23:52:41.976Z,1.87
2023-01-01T23:55:11.164Z,1.40
2023-01-01T23:57:39.561Z,1.47
